30°C
Woerden, The Nederlands
Taal:  Nederlands
Updated12/08/2020 13:40 
 

Nearby METAR Reports

EHAM - Amsterdam/Schiph, Netherlands
Distance from station: N 27km
Updated: 12/08/2020 13:25
Few Clouds
Few Clouds
 Wind van OZO
Wind: OZO 11 km/h
Temperatuur: 30°C
Heat Index: 31°C
Dauwpunt: 18°C
Vochtigheid: 49%
Barometer: 1014 hPa
Clouds: Few Clouds
Visibility: 10 km
Cloud details: Few Clouds 1341 m
2020/08/12 11:25 EHAM 121125Z 12006KT 050V180 9999 FEW044 30/18 Q1014 NOSIG
EHRD - Rotterdam Airpor, Netherlands
Distance from station: WZW 30km
Updated: 12/08/2020 13:25
Helder
Helder
 Wind van O
Wind: O 11 km/h
Temperatuur: 30°C
Heat Index: 31°C
Dauwpunt: 19°C
Vochtigheid: 52%
Barometer: 1014 hPa
Clouds: Helder
Visibility: 10 km
2020/08/12 11:25 EHRD 121125Z AUTO 09006KT 050V120 9999 NCD 30/19 Q1014 NOSIG
 
EHGR - Gilze-Rijen Rnla, Netherlands
Distance from station: Z 57km
Updated: 12/08/2020 13:25
Helder
Helder
 Wind van O
Wind: O 17 km/h
Temperatuur: 31°C
Heat Index: 32°C
Dauwpunt: 18°C
Vochtigheid: 46%
Barometer: 1013 hPa
Clouds: Helder
Visibility: 10 km
2020/08/12 11:25 EHGR 121125Z AUTO 10009KT 050V170 9999 NCD 31/18 Q1013 BLU NOSIG
EHDL - Deelen Rnlafb, Netherlands
Distance from station: O 71km
Updated: 12/08/2020 13:25
Helder
Helder
 Wind van ZZO
Wind: ZZO 13 km/h
Temperatuur: 33°C
Dauwpunt: 16°C
Vochtigheid: 36%
Barometer: 1014 hPa
Clouds: Helder
Visibility: 10 km
2020/08/12 11:25 EHDL 121125Z AUTO 16007KT 060V220 9999 NCD 33/16 Q1014 BLU
 
EHVK - Volkel Rnlafb, Netherlands
Distance from station: ZO 77km
Updated: 12/08/2020 13:25
Few Clouds
Few Clouds
 Wind van O
Wind: O 15 km/h
Temperatuur: 31°C
Heat Index: 32°C
Dauwpunt: 18°C
Vochtigheid: 46%
Barometer: 1014 hPa
Clouds: Few Clouds
Visibility: 10 km
Cloud details: Few Clouds 4877 m
2020/08/12 11:25 EHVK 121125Z AUTO 10008KT 050V150 9999 FEW160 31/18 Q1014 BLU NOSIG
EHWO - Woensdrecht Rnla, Netherlands
Distance from station: ZZW 78km
Updated: 12/08/2020 13:25
Few Clouds
Few Clouds
 Wind van ZO
Wind: ZO 9 km/h
Temperatuur: 29°C
Heat Index: 29°C
Dauwpunt: 18°C
Vochtigheid: 51%
Barometer: 1013 hPa
Clouds: Few Clouds
Visibility: 10 km
Cloud details: Few Clouds 11278 m
2020/08/12 11:25 EHWO 121125Z AUTO 13005KT 030V120 9999 FEW370 29/18 Q1013 BLU NOSIG
 
EHEH - Eindhoven Rnlafb, Netherlands
Distance from station: ZZO 81km
Updated: 12/08/2020 13:25
Helder
Helder
 Wind van ZO
Wind: ZO 15 km/h
Temperatuur: 31°C
Heat Index: 32°C
Dauwpunt: 18°C
Vochtigheid: 46%
Barometer: 1014 hPa
Clouds: Helder
Visibility: 10 km
2020/08/12 11:25 EHEH 121125Z AUTO 13008KT 060V180 9999 NCD 31/18 Q1014 BLU NOSIG
EHSC - Goeree Le Sea, Netherlands
Distance from station: W 81km
Updated: 12/08/2020 13:25

 Wind van N
Wind: N 22 km/h
Temperatuur: 22°C
Dauwpunt: 19°C
Vochtigheid: 83%
Barometer: 1013 hPa
Visibility: 7 km
2020/08/12 11:25 EHSC 121125Z AUTO 01012KT 7000 ///////// 22/19 Q1013 W20/H5